Time;durP1;ratioP1;P1;durP2;ratioP2;P2;SDS_P1;SDS_P2;PMS_P1;PMS_P2;Temp;Humidity;BMP_temperature;BMP_pressure;BME280_temperature;BME280_humidity;BME280_pressure;Samples;Min_cycle;Max_cycle;Signal;HPM_P1;HPM_P2
2021/05/23 00:00:18;;;;;;;0.75;0.20;;;10.30;74.40;;;;;;5094128;28;20062;-73
2021/05/23 00:02:43;;;;;;;0.95;0.20;;;10.30;74.70;;;;;;5094257;28;20024;-72
2021/05/23 00:05:12;;;;;;;0.30;0.30;;;10.30;73.70;;;;;;5092818;28;20026;-73
2021/05/23 00:07:43;;;;;;;1.40;0.63;;;10.30;73.20;;;;;;5093956;28;20017;-73
2021/05/23 00:10:09;;;;;;;2.40;0.20;;;10.40;72.90;;;;;;5093927;28;20102;-73
2021/05/23 00:12:35;;;;;;;0.52;0.20;;;10.40;73.40;;;;;;5093750;28;20069;-72
2021/05/23 00:15:00;;;;;;;1.85;0.20;;;10.50;72.70;;;;;;5093876;28;20376;-72
2021/05/23 00:17:26;;;;;;;2.17;0.30;;;10.60;73.00;;;;;;5093715;28;20039;-72
2021/05/23 00:19:52;;;;;;;0.73;0.30;;;10.70;73.30;;;;;;5093834;28;20028;-72
2021/05/23 00:22:17;;;;;;;0.77;0.20;;;10.70;72.80;;;;;;5093707;28;20501;-71
2021/05/23 00:24:43;;;;;;;1.25;0.28;;;10.70;72.30;;;;;;5093499;28;20473;-71
2021/05/23 00:27:08;;;;;;;0.22;0.10;;;10.50;71.60;;;;;;5093285;28;20111;-72
2021/05/23 00:29:34;;;;;;;0.50;0.30;;;10.50;72.60;;;;;;5093605;28;20093;-71
2021/05/23 00:32:00;;;;;;;1.60;0.20;;;10.40;72.70;;;;;;5093609;28;20071;-72
2021/05/23 00:34:25;;;;;;;0.13;0.13;;;10.40;72.90;;;;;;5092300;28;20193;-71
2021/05/23 00:36:53;;;;;;;0.55;0.10;;;10.40;73.60;;;;;;5093574;28;20024;-71
2021/05/23 00:39:18;;;;;;;0.32;0.10;;;10.50;73.10;;;;;;5093504;28;20027;-71
2021/05/23 00:41:44;;;;;;;0.38;0.20;;;10.50;73.00;;;;;;5093415;28;20473;-72
2021/05/23 00:44:09;;;;;;;1.02;0.43;;;10.40;73.20;;;;;;5093169;28;20413;-71
2021/05/23 00:46:35;;;;;;;1.23;0.15;;;10.30;72.90;;;;;;5093452;28;20036;-72
2021/05/23 00:49:01;;;;;;;0.73;0.28;;;10.40;73.10;;;;;;5093414;28;20098;-71
2021/05/23 00:51:26;;;;;;;0.75;0.28;;;10.40;73.80;;;;;;5093192;28;20068;-72
2021/05/23 00:53:52;;;;;;;1.27;0.30;;;10.40;73.40;;;;;;5093450;28;20047;-71
2021/05/23 00:56:19;;;;;;;0.30;0.20;;;10.30;73.50;;;;;;5093180;28;20028;-70
2021/05/23 00:58:45;;;;;;;0.32;0.10;;;10.20;74.80;;;;;;5108901;28;20027;-71
2021/05/23 01:01:55;;;;;;;0.28;0.20;;;10.30;74.10;;;;;;5093151;28;20298;-72
2021/05/23 01:04:21;;;;;;;0.95;0.20;;;10.20;74.30;;;;;;5108805;28;20500;-73
2021/05/23 01:06:47;;;;;;;1.75;0.20;;;10.20;75.00;;;;;;5093180;28;20055;-71
2021/05/23 01:09:13;;;;;;;0.73;0.20;;;10.00;75.00;;;;;;5093061;28;20046;-72
2021/05/23 01:11:41;;;;;;;2.42;0.20;;;10.00;75.10;;;;;;5092517;28;20032;-72
2021/05/23 01:14:13;;;;;;;1.65;0.35;;;10.00;74.70;;;;;;5093065;28;20038;-72
2021/05/23 01:16:43;;;;;;;1.63;0.20;;;10.00;75.50;;;;;;5092992;28;20036;-72
2021/05/23 01:19:31;;;;;;;0.95;0.30;;;10.00;75.30;;;;;;5093015;28;20031;-72
2021/05/23 01:22:17;;;;;;;0.73;0.20;;;10.10;76.10;;;;;;5092964;28;20034;-72
2021/05/23 01:24:57;;;;;;;0.73;0.30;;;10.10;75.90;;;;;;5093377;28;20031;-72
2021/05/23 01:27:33;;;;;;;0.60;0.20;;;10.10;76.20;;;;;;5092930;28;20023;-72
2021/05/23 01:30:00;;;;;;;0.45;0.20;;;10.10;76.00;;;;;;5092953;28;20028;-72
2021/05/23 01:32:26;;;;;;;1.23;0.30;;;10.10;76.50;;;;;;5092862;28;20056;-72
2021/05/23 01:34:51;;;;;;;0.32;0.20;;;10.10;76.00;;;;;;5092902;28;20020;-72
2021/05/23 01:37:23;;;;;;;0.57;0.13;;;10.10;76.10;;;;;;5092774;28;20047;-72
2021/05/23 01:39:48;;;;;;;0.65;0.30;;;10.10;75.50;;;;;;5092964;28;20024;-72
2021/05/23 01:42:14;;;;;;;1.33;0.32;;;10.20;74.80;;;;;;5092742;28;20036;-72
2021/05/23 01:44:40;;;;;;;0.38;0.20;;;10.20;74.70;;;;;;5092766;28;20040;-72
2021/05/23 01:47:06;;;;;;;0.55;0.20;;;10.10;73.50;;;;;;5092741;28;20370;-72
2021/05/23 01:49:31;;;;;;;0.95;0.30;;;10.10;74.40;;;;;;5092739;28;20028;-71
2021/05/23 01:51:57;;;;;;;3.28;0.32;;;10.10;73.40;;;;;;5092764;28;20035;-71
2021/05/23 01:54:23;;;;;;;0.93;0.20;;;10.00;73.10;;;;;;5092746;28;20149;-71
2021/05/23 01:56:48;;;;;;;2.28;0.30;;;9.90;74.30;;;;;;5092590;28;20396;-72
2021/05/23 01:59:14;;;;;;;0.25;0.15;;;9.80;74.50;;;;;;5092606;28;20020;-72
2021/05/23 02:01:39;;;;;;;2.65;0.35;;;9.70;74.70;;;;;;5092650;28;20032;-71
2021/05/23 02:04:05;;;;;;;0.52;0.30;;;9.80;74.90;;;;;;5092602;28;20021;-72
2021/05/23 02:06:31;;;;;;;0.30;0.30;;;9.80;75.30;;;;;;5092581;28;20028;-71
2021/05/23 02:08:56;;;;;;;0.65;0.45;;;9.70;74.60;;;;;;5092533;28;20472;-72
2021/05/23 02:11:22;;;;;;;0.93;0.30;;;9.60;75.20;;;;;;5092511;28;20366;-72
2021/05/23 02:13:52;;;;;;;1.27;0.30;;;9.60;75.30;;;;;;5092631;28;20040;-72
2021/05/23 02:16:18;;;;;;;0.88;0.50;;;9.70;76.70;;;;;;5092260;28;20507;-72
2021/05/23 02:18:44;;;;;;;1.27;0.30;;;9.60;75.70;;;;;;5092527;28;20021;-72
2021/05/23 02:21:10;;;;;;;0.63;0.50;;;9.60;74.70;;;;;;5092497;28;20107;-72
2021/05/23 02:23:35;;;;;;;0.90;0.40;;;9.60;74.40;;;;;;5092762;28;20103;-72
2021/05/23 02:26:01;;;;;;;1.05;0.20;;;9.60;74.70;;;;;;5096082;28;20031;-72
2021/05/23 02:28:26;;;;;;;0.30;0.20;;;9.60;74.50;;;;;;5095964;28;20060;-72
2021/05/23 02:30:54;;;;;;;0.82;0.20;;;9.60;74.70;;;;;;5096093;28;20027;-72
2021/05/23 02:33:21;;;;;;;0.47;0.28;;;9.60;74.80;;;;;;5095790;28;20115;-71
2021/05/23 02:35:50;;;;;;;0.10;0.10;;;9.60;75.50;;;;;;5095882;28;20058;-72
2021/05/23 02:38:17;;;;;;;2.45;0.50;;;9.50;77.00;;;;;;5095833;28;20028;-72
2021/05/23 02:40:44;;;;;;;1.27;0.30;;;9.50;78.00;;;;;;5095798;28;20031;-72
2021/05/23 02:43:11;;;;;;;1.92;0.40;;;9.30;79.80;;;;;;5095730;28;20024;-72
2021/05/23 02:45:38;;;;;;;1.60;0.40;;;9.30;80.60;;;;;;5095425;28;20173;-72
2021/05/23 02:48:06;;;;;;;1.75;0.20;;;9.20;80.10;;;;;;5095635;28;20102;-72
2021/05/23 02:50:35;;;;;;;0.30;0.15;;;9.20;80.30;;;;;;5095557;28;20486;-72
2021/05/23 02:53:01;;;;;;;0.20;0.10;;;9.10;80.40;;;;;;5095591;28;20109;-72
2021/05/23 02:55:27;;;;;;;0.50;0.30;;;9.20;80.10;;;;;;5095378;28;20090;-71
2021/05/23 02:57:53;;;;;;;1.20;0.30;;;9.10;79.90;;;;;;5095488;28;20477;-71
2021/05/23 03:00:22;;;;;;;1.45;0.20;;;9.20;80.50;;;;;;5095367;28;20044;-72
2021/05/23 03:02:49;;;;;;;0.30;0.20;;;9.20;79.20;;;;;;5095622;28;20372;-71
2021/05/23 03:05:17;;;;;;;0.20;0.10;;;9.20;79.40;;;;;;5095231;28;20095;-72
2021/05/23 03:07:46;;;;;;;0.47;0.20;;;9.30;79.30;;;;;;5095197;28;20458;-71
2021/05/23 03:10:18;;;;;;;0.57;0.20;;;9.30;79.30;;;;;;5095254;28;20031;-72
2021/05/23 03:12:44;;;;;;;0.82;0.15;;;9.40;79.20;;;;;;5093921;28;20431;-72
2021/05/23 03:15:12;;;;;;;1.85;0.65;;;9.40;78.50;;;;;;5095063;28;20052;-72
2021/05/23 03:17:39;;;;;;;1.10;0.20;;;9.40;78.90;;;;;;5095032;28;20038;-72
2021/05/23 03:20:07;;;;;;;0.98;0.17;;;9.50;78.40;;;;;;5094939;28;20439;-72
2021/05/23 03:22:33;;;;;;;1.55;0.30;;;9.50;77.70;;;;;;5095049;28;20055;-73
2021/05/23 03:24:59;;;;;;;2.78;0.40;;;9.50;76.20;;;;;;5095013;28;20028;-72
2021/05/23 03:27:24;;;;;;;2.40;0.22;;;9.40;75.60;;;;;;5094737;28;20024;-72
2021/05/23 03:29:50;;;;;;;0.85;0.25;;;9.40;75.30;;;;;;5094916;28;20028;-72
2021/05/23 03:32:15;;;;;;;1.65;0.50;;;9.50;74.60;;;;;;5094758;28;20114;-72
2021/05/23 03:34:41;;;;;;;2.50;0.32;;;9.50;74.70;;;;;;5094331;28;20529;-72
2021/05/23 03:37:07;;;;;;;1.38;0.30;;;9.50;74.60;;;;;;5094597;28;20028;-72
2021/05/23 03:39:33;;;;;;;0.43;0.35;;;9.50;74.30;;;;;;5094581;28;20154;-72
2021/05/23 03:41:58;;;;;;;1.38;0.20;;;9.40;74.90;;;;;;5094678;28;20120;-72
2021/05/23 03:44:24;;;;;;;0.70;0.25;;;9.40;74.80;;;;;;5094317;28;20036;-72
2021/05/23 03:46:49;;;;;;;1.23;0.17;;;9.50;75.10;;;;;;5094552;28;20105;-72
2021/05/23 03:49:15;;;;;;;0.40;0.22;;;9.50;74.60;;;;;;5094493;28;20024;-72
2021/05/23 03:51:41;;;;;;;1.55;0.35;;;9.50;74.50;;;;;;5094436;28;20097;-72
2021/05/23 03:54:07;;;;;;;3.95;0.52;;;9.40;73.80;;;;;;5094338;28;20024;-72
2021/05/23 03:56:33;;;;;;;3.60;0.30;;;9.40;74.10;;;;;;5094240;28;20114;-72
2021/05/23 03:58:59;;;;;;;1.88;0.40;;;9.30;73.50;;;;;;5094301;28;20020;-72
2021/05/23 04:01:24;;;;;;;2.42;0.50;;;9.40;73.60;;;;;;5094225;28;20034;-72
2021/05/23 04:03:55;;;;;;;1.30;0.38;;;9.40;73.20;;;;;;5094219;28;20096;-72
2021/05/23 04:06:21;;;;;;;4.45;0.52;;;9.40;73.40;;;;;;5094048;28;20059;-72
2021/05/23 04:08:47;;;;;;;3.90;0.47;;;9.40;73.70;;;;;;5094151;28;20052;-71
2021/05/23 04:11:16;;;;;;;0.40;0.20;;;9.30;73.70;;;;;;5094027;28;20066;-71
2021/05/23 04:13:41;;;;;;;4.57;0.90;;;9.30;73.70;;;;;;5094162;28;20020;-71
2021/05/23 04:16:08;;;;;;;2.58;0.95;;;9.30;74.30;;;;;;5092551;28;20491;-71
2021/05/23 04:18:34;;;;;;;4.13;0.70;;;9.20;75.10;;;;;;5093951;28;20028;-72
2021/05/23 04:20:59;;;;;;;0.55;0.25;;;9.20;75.60;;;;;;5093896;28;20021;-72
2021/05/23 04:23:25;;;;;;;0.60;0.30;;;9.30;75.30;;;;;;5093845;28;20032;-72
2021/05/23 04:25:51;;;;;;;2.60;0.40;;;9.40;73.40;;;;;;5093790;28;20024;-72
2021/05/23 04:28:17;;;;;;;1.08;0.30;;;9.40;72.30;;;;;;5093719;28;20020;-72
2021/05/23 04:30:43;;;;;;;1.70;0.80;;;9.40;72.60;;;;;;5093712;28;20036;-72
2021/05/23 04:33:09;;;;;;;1.75;0.40;;;9.50;72.50;;;;;;5093615;28;20082;-72
2021/05/23 04:35:34;;;;;;;1.48;0.60;;;9.50;72.40;;;;;;5093571;28;20380;-71
2021/05/23 04:38:01;;;;;;;1.13;0.50;;;9.60;72.00;;;;;;5093674;28;20477;-72
2021/05/23 04:40:28;;;;;;;1.27;0.60;;;9.50;71.70;;;;;;5093580;28;20027;-71
2021/05/23 04:42:54;;;;;;;0.75;0.20;;;9.50;72.20;;;;;;5093495;28;20024;-72
2021/05/23 04:45:20;;;;;;;3.78;1.35;;;9.50;71.80;;;;;;5093312;28;20044;-72
2021/05/23 04:47:46;;;;;;;1.33;0.30;;;9.60;71.50;;;;;;5092612;28;20020;-71
2021/05/23 04:50:12;;;;;;;1.10;0.32;;;9.60;71.30;;;;;;5093320;28;20076;-71
2021/05/23 04:52:38;;;;;;;1.40;0.30;;;9.60;71.10;;;;;;5093541;28;20102;-71
2021/05/23 04:55:05;;;;;;;0.30;0.20;;;9.60;70.70;;;;;;5093452;28;20028;-71
2021/05/23 04:57:31;;;;;;;1.25;0.35;;;9.50;70.80;;;;;;5093325;28;20056;-71
2021/05/23 04:59:56;;;;;;;1.00;0.30;;;9.60;71.10;;;;;;5093323;28;20059;-71
2021/05/23 05:02:22;;;;;;;1.33;0.50;;;9.50;71.80;;;;;;5093272;28;20024;-71
2021/05/23 05:04:48;;;;;;;0.68;0.35;;;9.50;72.50;;;;;;5091939;28;20024;-71
2021/05/23 05:07:14;;;;;;;1.65;0.30;;;9.50;73.20;;;;;;5093226;28;20020;-71
2021/05/23 05:09:39;;;;;;;1.15;0.40;;;9.40;72.00;;;;;;5093226;28;20060;-71
2021/05/23 05:12:06;;;;;;;3.58;1.30;;;9.40;72.40;;;;;;5093219;28;20020;-71
2021/05/23 05:14:31;;;;;;;1.90;0.20;;;9.40;72.50;;;;;;5093122;28;20085;-71
2021/05/23 05:16:57;;;;;;;0.28;0.10;;;9.50;72.20;;;;;;5093083;28;20379;-71
2021/05/23 05:19:23;;;;;;;3.78;0.40;;;9.50;71.60;;;;;;5093035;28;20020;-71
2021/05/23 05:21:48;;;;;;;0.82;0.30;;;9.50;71.20;;;;;;5093370;28;20032;-71
2021/05/23 05:24:14;;;;;;;0.95;0.30;;;9.50;71.50;;;;;;5093071;28;20465;-70
2021/05/23 05:26:40;;;;;;;3.15;0.47;;;9.60;71.30;;;;;;5093075;28;20089;-71
2021/05/23 05:29:06;;;;;;;2.15;0.30;;;9.60;70.90;;;;;;5092965;28;20024;-71
2021/05/23 05:31:32;;;;;;;1.63;0.95;;;9.60;71.70;;;;;;5093143;28;20048;-71
2021/05/23 05:33:58;;;;;;;2.58;0.40;;;9.70;71.50;;;;;;5093000;28;20022;-71
2021/05/23 05:36:23;;;;;;;1.00;0.32;;;9.60;72.20;;;;;;5092853;28;20031;-71
2021/05/23 05:38:49;;;;;;;2.05;0.60;;;9.50;72.60;;;;;;5092954;28;20472;-71
2021/05/23 05:41:16;;;;;;;1.70;0.50;;;9.40;75.30;;;;;;5092894;28;20389;-72
2021/05/23 05:43:42;;;;;;;2.72;0.50;;;9.50;76.00;;;;;;5092914;28;20460;-71
2021/05/23 05:46:07;;;;;;;3.17;0.30;;;9.30;76.20;;;;;;5092666;28;20109;-71
2021/05/23 05:48:34;;;;;;;0.75;0.30;;;9.00;76.30;;;;;;5092846;28;20024;-72
2021/05/23 05:51:01;;;;;;;0.45;0.20;;;8.80;77.10;;;;;;5108499;28;20035;-71
2021/05/23 05:53:26;;;;;;;0.93;0.20;;;8.30;80.40;;;;;;5092750;28;20020;-71
2021/05/23 05:55:52;;;;;;;1.52;0.20;;;8.10;81.10;;;;;;5092657;28;20115;-71
2021/05/23 05:58:17;;;;;;;0.35;0.15;;;7.90;79.60;;;;;;5094066;28;20047;-71
2021/05/23 06:00:43;;;;;;;1.90;0.63;;;7.70;82.00;;;;;;5096517;28;20081;-71
2021/05/23 06:03:09;;;;;;;1.42;0.47;;;7.60;82.60;;;;;;5096784;28;20039;-71
2021/05/23 06:05:34;;;;;;;0.17;0.17;;;7.60;84.70;;;;;;5096537;28;20020;-71
2021/05/23 06:08:00;;;;;;;2.55;1.00;;;7.70;82.90;;;;;;5096485;28;20032;-71
2021/05/23 06:10:25;;;;;;;0.47;0.10;;;7.90;83.00;;;;;;5096388;28;20103;-72
2021/05/23 06:12:51;;;;;;;0.28;0.20;;;8.20;82.10;;;;;;5096396;28;20074;-71
2021/05/23 06:15:17;;;;;;;0.50;0.10;;;8.40;82.00;;;;;;5096260;28;20024;-72
2021/05/23 06:17:42;;;;;;;0.60;0.10;;;8.60;81.80;;;;;;5095748;28;20085;-71
2021/05/23 06:20:08;;;;;;;0.40;0.25;;;8.90;81.60;;;;;;5096152;28;20020;-71
2021/05/23 06:22:34;;;;;;;0.38;0.10;;;9.10;81.50;;;;;;5096198;28;20028;-72
2021/05/23 06:25:00;;;;;;;0.73;0.20;;;9.20;81.50;;;;;;5096104;28;20016;-71
2021/05/23 06:27:26;;;;;;;1.23;0.20;;;9.40;81.60;;;;;;5096060;28;20031;-72
2021/05/23 06:29:51;;;;;;;1.52;0.10;;;9.60;81.30;;;;;;5096077;28;20028;-71
2021/05/23 06:32:17;;;;;;;0.70;0.43;;;9.80;80.90;;;;;;5095930;28;20388;-72
2021/05/23 06:34:42;;;;;;;1.20;0.40;;;10.00;79.10;;;;;;5096023;28;20114;-72
2021/05/23 06:37:08;;;;;;;0.63;0.30;;;10.20;78.10;;;;;;5094496;28;20034;-72
2021/05/23 06:39:34;;;;;;;1.38;0.50;;;10.30;76.70;;;;;;5095792;28;20095;-72
2021/05/23 06:41:59;;;;;;;2.25;0.15;;;10.40;73.30;;;;;;5095816;28;20423;-74
2021/05/23 06:44:25;;;;;;;0.30;0.17;;;10.40;72.10;;;;;;5095528;28;20028;-73
2021/05/23 06:46:51;;;;;;;0.95;0.22;;;10.30;72.00;;;;;;5095806;28;20031;-73
2021/05/23 06:49:16;;;;;;;0.95;0.30;;;10.30;74.50;;;;;;5111417;28;20445;-72
2021/05/23 06:51:42;;;;;;;0.43;0.20;;;10.20;72.70;;;;;;5095616;28;20028;-72
2021/05/23 06:54:09;;;;;;;0.20;0.20;;;10.30;72.90;;;;;;5095590;28;20365;-72
2021/05/23 06:56:35;;;;;;;2.05;0.40;;;10.50;72.30;;;;;;5095458;28;20031;-72
2021/05/23 06:59:01;;;;;;;2.13;0.70;;;10.60;71.20;;;;;;5095467;28;20028;-72
2021/05/23 07:01:27;;;;;;;3.72;1.05;;;10.70;70.60;;;;;;5095442;28;20491;-73
2021/05/23 07:03:52;;;;;;;0.45;0.30;;;10.60;70.50;;;;;;5095317;28;20028;-71
2021/05/23 07:06:18;;;;;;;0.88;0.40;;;10.40;70.60;;;;;;5095288;28;20016;-72
2021/05/23 07:08:44;;;;;;;3.47;0.50;;;10.30;72.40;;;;;;5095166;28;20026;-72
2021/05/23 07:11:10;;;;;;;1.63;0.55;;;10.40;74.50;;;;;;5094360;28;20411;-72
2021/05/23 07:13:35;;;;;;;2.33;0.80;;;10.50;73.50;;;;;;5095090;28;20023;-72
2021/05/23 07:16:01;;;;;;;2.53;0.40;;;10.70;70.70;;;;;;5094834;28;20027;-72
2021/05/23 07:18:27;;;;;;;1.83;0.40;;;10.70;70.00;;;;;;5095017;28;20047;-72
2021/05/23 07:20:54;;;;;;;1.02;0.40;;;10.60;71.00;;;;;;5094832;28;20488;-72
2021/05/23 07:23:20;;;;;;;2.35;0.60;;;10.70;69.50;;;;;;5094839;28;20517;-72
2021/05/23 07:25:45;;;;;;;1.98;0.68;;;10.50;69.10;;;;;;5094975;28;20028;-72
2021/05/23 07:28:11;;;;;;;1.17;0.32;;;10.10;69.60;;;;;;5094661;28;20473;-72
2021/05/23 07:30:37;;;;;;;3.33;0.40;;;10.00;69.60;;;;;;5094822;28;20054;-72
2021/05/23 07:33:02;;;;;;;1.85;0.55;;;10.30;70.00;;;;;;5094776;28;20035;-72
2021/05/23 07:35:28;;;;;;;0.73;0.30;;;10.50;69.90;;;;;;5110420;28;20421;-71
2021/05/23 07:37:53;;;;;;;2.83;0.30;;;10.60;68.30;;;;;;5094681;28;20055;-72
2021/05/23 07:40:19;;;;;;;0.93;0.57;;;10.60;68.60;;;;;;5094540;28;20089;-72
2021/05/23 07:42:45;;;;;;;2.15;0.52;;;10.50;68.40;;;;;;5094351;28;20024;-72
2021/05/23 07:45:11;;;;;;;2.38;0.85;;;10.40;70.00;;;;;;5093838;28;20408;-72
2021/05/23 07:47:37;;;;;;;0.95;0.38;;;10.50;72.40;;;;;;5093160;28;20433;-72
2021/05/23 07:50:05;;;;;;;1.67;0.70;;;10.80;69.90;;;;;;5094326;28;20020;-72
2021/05/23 07:52:30;;;;;;;1.80;0.43;;;11.20;69.00;;;;;;5094377;28;20046;-72
2021/05/23 07:54:56;;;;;;;0.63;0.32;;;11.40;67.00;;;;;;5094436;28;20476;-72
2021/05/23 07:57:22;;;;;;;2.33;0.35;;;11.60;66.10;;;;;;5094182;28;20035;-73
2021/05/23 07:59:48;;;;;;;3.17;0.98;;;11.80;66.30;;;;;;5094309;28;20028;-72
2021/05/23 08:02:13;;;;;;;1.35;0.75;;;12.10;66.40;;;;;;5094235;28;20085;-73
2021/05/23 08:04:39;;;;;;;1.70;0.55;;;12.40;65.80;;;;;;5094048;28;20059;-73
2021/05/23 08:07:04;;;;;;;1.30;0.70;;;12.50;64.10;;;;;;5094079;28;20020;-72
2021/05/23 08:09:30;;;;;;;2.45;0.90;;;12.50;62.60;;;;;;5092749;28;20177;-72
2021/05/23 08:11:56;;;;;;;3.90;1.15;;;12.70;66.50;;;;;;5093851;28;20051;-72
2021/05/23 08:14:21;;;;;;;9.55;2.45;;;12.70;65.10;;;;;;5093809;28;20032;-73
2021/05/23 08:16:48;;;;;;;1.63;0.40;;;12.60;64.00;;;;;;5109369;28;20028;-73
2021/05/23 08:19:14;;;;;;;4.53;0.73;;;12.00;60.60;;;;;;5093598;28;20017;-73
2021/05/23 08:21:40;;;;;;;2.33;0.28;;;11.30;62.70;;;;;;5093533;28;20024;-71
2021/05/23 08:24:06;;;;;;;3.30;1.20;;;11.10;66.00;;;;;;5092891;28;20073;-71
2021/05/23 08:26:33;;;;;;;3.60;1.98;;;11.10;67.70;;;;;;5093691;28;20020;-72
2021/05/23 08:28:59;;;;;;;3.95;0.70;;;11.00;68.30;;;;;;5093707;28;20028;-71
2021/05/23 08:31:25;;;;;;;2.85;0.93;;;11.00;67.20;;;;;;5093498;28;20480;-72
2021/05/23 08:33:51;;;;;;;2.10;0.80;;;11.20;66.20;;;;;;5093196;28;20063;-71
2021/05/23 08:36:16;;;;;;;3.45;1.20;;;11.20;66.90;;;;;;5093212;28;20031;-71
2021/05/23 08:38:42;;;;;;;1.52;0.82;;;11.20;66.50;;;;;;5093592;28;20103;-71
2021/05/23 08:41:08;;;;;;;1.38;0.63;;;11.40;65.20;;;;;;5093458;28;20062;-72
2021/05/23 08:43:34;;;;;;;1.60;0.40;;;11.60;65.50;;;;;;5093377;28;20397;-72
2021/05/23 08:46:01;;;;;;;4.95;0.70;;;11.70;63.20;;;;;;5093266;28;20051;-71
2021/05/23 08:48:27;;;;;;;2.72;0.50;;;11.70;64.00;;;;;;5093337;28;20032;-72
2021/05/23 08:50:54;;;;;;;1.55;0.52;;;11.90;63.60;;;;;;5093560;28;20028;-72
2021/05/23 08:53:21;;;;;;;5.03;0.60;;;12.00;60.60;;;;;;5093469;28;20031;-71
2021/05/23 08:55:47;;;;;;;3.13;0.65;;;12.00;59.20;;;;;;5093303;28;20416;-72
2021/05/23 08:58:15;;;;;;;1.20;0.30;;;12.10;59.60;;;;;;5092616;28;20073;-71
2021/05/23 09:00:41;;;;;;;1.83;0.40;;;12.00;56.90;;;;;;5092949;28;20024;-71
2021/05/23 09:03:18;;;;;;;2.38;0.60;;;12.00;56.80;;;;;;5092922;28;20081;-72
2021/05/23 09:05:56;;;;;;;0.50;0.32;;;12.00;58.30;;;;;;5091774;28;20488;-71
2021/05/23 09:08:26;;;;;;;5.93;0.95;;;12.00;57.80;;;;;;5092749;28;20064;-71
2021/05/23 09:10:54;;;;;;;1.13;0.25;;;12.20;57.20;;;;;;5092328;28;20103;-71
2021/05/23 09:13:49;;;;;;;3.78;0.85;;;12.20;55.40;;;;;;5092912;28;20028;-71
2021/05/23 09:16:14;;;;;;;2.55;0.70;;;12.10;56.00;;;;;;5091610;28;20075;-72
2021/05/23 09:18:44;;;;;;;1.80;0.50;;;12.10;56.20;;;;;;5093734;28;20047;-72
2021/05/23 09:21:12;;;;;;;2.00;0.50;;;12.30;55.90;;;;;;5092892;28;20107;-72
2021/05/23 09:23:49;;;;;;;1.52;0.47;;;12.20;54.90;;;;;;5093866;28;20027;-71
2021/05/23 09:26:25;;;;;;;1.45;0.40;;;12.30;55.20;;;;;;5096599;28;20536;-72
2021/05/23 09:28:51;;;;;;;1.75;0.30;;;12.50;55.20;;;;;;5098799;28;20035;-72
2021/05/23 09:31:20;;;;;;;4.43;0.50;;;12.50;54.80;;;;;;5098562;28;20444;-72
2021/05/23 09:33:53;;;;;;;3.00;0.98;;;12.60;53.90;;;;;;5099738;28;20081;-71
2021/05/23 09:36:20;;;;;;;2.08;0.88;;;12.50;54.30;;;;;;5101194;28;20078;-72
2021/05/23 09:38:58;;;;;;;2.70;0.50;;;12.60;52.20;;;;;;5100076;28;20039;-72
2021/05/23 09:41:35;;;;;;;2.85;0.73;;;12.60;52.30;;;;;;5098667;28;20032;-72
2021/05/23 09:44:15;;;;;;;1.17;0.30;;;12.80;51.80;;;;;;5101006;28;20106;-71
2021/05/23 09:47:11;;;;;;;0.70;0.30;;;12.70;51.40;;;;;;5099166;28;20020;-72
2021/05/23 09:49:46;;;;;;;2.03;0.60;;;12.80;50.00;;;;;;5092673;28;20036;-72
2021/05/23 09:52:17;;;;;;;2.70;0.47;;;13.00;49.20;;;;;;5097315;28;20046;-72
2021/05/23 09:54:46;;;;;;;2.28;0.30;;;13.00;50.00;;;;;;5097026;28;20039;-71
2021/05/23 09:57:16;;;;;;;0.75;0.40;;;13.10;49.20;;;;;;5096576;28;20091;-72
2021/05/23 09:59:42;;;;;;;2.38;0.50;;;13.30;47.00;;;;;;5096767;28;20530;-71
2021/05/23 10:02:10;;;;;;;2.85;0.43;;;13.30;46.30;;;;;;5095362;28;20024;-72
2021/05/23 10:04:37;;;;;;;2.28;0.30;;;13.20;45.00;;;;;;5096393;28;20031;-72
2021/05/23 10:07:08;;;;;;;3.03;0.40;;;13.10;46.00;;;;;;5096459;28;20115;-72
2021/05/23 10:09:34;;;;;;;1.55;0.40;;;13.30;45.60;;;;;;5096474;28;20066;-72
2021/05/23 10:12:01;;;;;;;7.43;0.98;;;13.30;46.00;;;;;;5096270;28;20028;-74
2021/05/23 10:14:28;;;;;;;0.75;0.40;;;13.20;45.60;;;;;;5096093;28;20024;-72
2021/05/23 10:16:54;;;;;;;1.50;0.45;;;13.20;46.60;;;;;;5096250;28;20059;-72
2021/05/23 10:19:26;;;;;;;2.40;0.40;;;13.30;45.60;;;;;;5096270;28;20024;-72
2021/05/23 10:21:54;;;;;;;1.85;0.40;;;13.50;45.70;;;;;;5095947;28;20028;-72
2021/05/23 10:24:30;;;;;;;3.42;0.50;;;13.70;45.00;;;;;;5094835;28;20146;-72
2021/05/23 10:27:00;;;;;;;2.85;0.50;;;13.80;43.70;;;;;;5095177;28;20095;-72
2021/05/23 10:29:25;;;;;;;1.65;0.45;;;13.80;43.90;;;;;;5095836;28;20028;-72
2021/05/23 10:32:08;;;;;;;2.33;0.50;;;13.70;43.90;;;;;;5095994;28;20024;-71
2021/05/23 10:34:38;;;;;;;1.23;0.68;;;13.50;45.60;;;;;;5095972;28;20202;-71
2021/05/23 10:37:05;;;;;;;0.50;0.40;;;13.70;46.00;;;;;;5095605;28;20477;-71
2021/05/23 10:39:51;;;;;;;2.03;0.60;;;13.90;44.20;;;;;;5095984;28;20047;-71
2021/05/23 10:42:17;;;;;;;1.83;0.70;;;14.20;43.30;;;;;;5095581;28;20031;-71
2021/05/23 10:44:45;;;;;;;1.38;0.63;;;14.40;43.30;;;;;;5092853;28;20066;-71
2021/05/23 10:47:14;;;;;;;3.15;0.70;;;14.70;41.70;;;;;;5095561;28;20020;-72
2021/05/23 10:50:12;;;;;;;1.85;0.40;;;15.00;42.00;;;;;;5095545;28;20472;-71
2021/05/23 10:52:40;;;;;;;3.15;0.40;;;14.70;39.40;;;;;;5072396;28;20115;-71
2021/05/23 10:55:15;;;;;;;2.13;0.40;;;14.70;39.30;;;;;;5095707;28;20017;-71
2021/05/23 10:57:46;;;;;;;0.98;0.28;;;15.00;38.10;;;;;;5095581;28;20024;-72
2021/05/23 11:00:35;;;;;;;1.75;0.60;;;15.40;36.80;;;;;;5095591;28;20022;-73
2021/05/23 11:03:12;;;;;;;1.45;0.55;;;15.50;36.00;;;;;;5097212;28;20027;-71
2021/05/23 11:05:38;;;;;;;1.05;0.57;;;15.00;36.50;;;;;;5100162;28;20032;-71
2021/05/23 11:08:07;;;;;;;3.15;0.40;;;14.80;37.60;;;;;;5098461;28;20024;-71
2021/05/23 11:10:46;;;;;;;2.58;0.52;;;14.70;38.50;;;;;;5096206;28;20020;-72
2021/05/23 11:13:31;;;;;;;2.42;0.70;;;14.80;39.20;;;;;;5095560;28;20030;-72
2021/05/23 11:16:17;;;;;;;0.60;0.20;;;15.00;38.60;;;;;;5095293;28;20030;-72
2021/05/23 11:18:43;;;;;;;2.00;0.50;;;15.30;38.10;;;;;;5095378;28;20059;-72
2021/05/23 11:21:14;;;;;;;2.08;0.40;;;15.70;38.40;;;;;;5093880;28;20078;-71
2021/05/23 11:23:56;;;;;;;2.28;0.60;;;15.70;36.90;;;;;;5095057;28;20050;-74
2021/05/23 11:26:25;;;;;;;1.83;0.40;;;15.60;36.20;;;;;;5095010;28;20028;-71
2021/05/23 11:28:55;;;;;;;0.98;0.50;;;15.20;36.00;;;;;;5094998;28;20085;-72
2021/05/23 11:31:32;;;;;;;0.73;0.22;;;15.00;36.80;;;;;;5094755;28;20046;-71
2021/05/23 11:34:00;;;;;;;4.55;0.77;;;14.90;37.10;;;;;;5094801;28;20028;-75
2021/05/23 11:36:28;;;;;;;2.33;0.68;;;14.90;37.40;;;;;;5093322;28;20089;-74
2021/05/23 11:38:56;;;;;;;3.38;0.57;;;14.80;38.20;;;;;;5093617;28;20020;-74
2021/05/23 11:41:36;;;;;;;1.40;0.55;;;14.80;38.30;;;;;;5093262;28;20032;-75
2021/05/23 11:44:03;;;;;;;3.17;0.50;;;15.00;38.80;;;;;;5093172;28;20032;-74
2021/05/23 11:46:30;;;;;;;2.58;0.40;;;15.10;38.10;;;;;;5094552;28;20042;-75
2021/05/23 11:48:56;;;;;;;3.42;0.50;;;14.90;38.70;;;;;;5093315;28;20115;-72
2021/05/23 11:51:27;;;;;;;2.28;0.47;;;14.80;38.40;;;;;;5093047;28;20024;-72
2021/05/23 11:54:04;;;;;;;1.77;0.22;;;15.10;39.00;;;;;;5093283;28;20056;-73
2021/05/23 11:56:34;;;;;;;2.30;0.40;;;15.10;39.10;;;;;;5092567;28;20122;-73
2021/05/23 11:59:02;;;;;;;2.75;0.30;;;15.10;39.30;;;;;;5093168;28;20034;-72
2021/05/23 12:01:33;;;;;;;2.50;0.68;;;15.20;39.80;;;;;;5093410;28;20024;-74
2021/05/23 12:04:12;;;;;;;4.68;0.63;;;15.20;40.20;;;;;;5093822;28;20020;-74
2021/05/23 12:06:42;;;;;;;2.65;0.55;;;14.90;40.80;;;;;;5093661;28;20500;-73
2021/05/23 12:09:24;;;;;;;0.93;0.30;;;14.80;40.60;;;;;;5096923;28;20027;-75
2021/05/23 12:11:58;;;;;;;1.73;0.40;;;14.90;41.00;;;;;;5094979;28;20568;-73
2021/05/23 12:14:45;;;;;;;2.85;0.50;;;15.10;40.20;;;;;;5093502;28;20024;-75
2021/05/23 12:17:16;;;;;;;0.90;0.30;;;15.20;39.60;;;;;;5094666;28;20040;-72
2021/05/23 12:19:49;;;;;;;2.38;0.30;;;15.50;39.00;;;;;;5093022;28;20020;-71
2021/05/23 12:22:24;;;;;;;1.80;1.20;;;15.80;38.30;;;;;;5092563;28;20027;-73
2021/05/23 12:25:00;;;;;;;2.40;0.40;;;15.70;37.70;;;;;;5092711;28;20020;-72
2021/05/23 12:27:34;;;;;;;0.80;0.40;;;15.80;37.90;;;;;;5092610;28;20028;-73
2021/05/23 12:30:09;;;;;;;4.75;0.60;;;15.80;37.70;;;;;;5092367;28;20028;-73
2021/05/23 12:33:07;;;;;;;2.63;0.63;;;15.60;37.80;;;;;;5093741;28;20035;-73
2021/05/23 12:35:34;;;;;;;3.25;0.52;;;15.60;37.40;;;;;;5092335;28;20070;-74
2021/05/23 12:38:01;;;;;;;1.42;0.25;;;15.60;37.70;;;;;;5091939;28;20031;-74
2021/05/23 12:40:41;;;;;;;6.35;0.73;;;15.50;37.70;;;;;;5093234;28;20538;-74
2021/05/23 12:43:12;;;;;;;2.47;0.32;;;15.60;37.60;;;;;;5092231;28;20038;-74
2021/05/23 12:45:39;;;;;;;0.98;0.38;;;15.70;37.20;;;;;;5092074;28;20044;-74
2021/05/23 12:48:10;;;;;;;1.23;0.50;;;15.50;37.40;;;;;;5092159;28;20025;-73
2021/05/23 12:50:37;;;;;;;2.67;0.40;;;15.40;37.50;;;;;;5092219;28;20035;-74
2021/05/23 12:53:04;;;;;;;0.80;0.30;;;15.40;37.70;;;;;;5092077;28;20021;-74
2021/05/23 12:55:31;;;;;;;1.10;0.43;;;15.50;37.70;;;;;;5091924;28;20058;-74